Mikasa — JD3633 — position and weather

sailwx.info

Track history (hours):
 
Tides and Currents Weather Stations Pressure Air Temp Water Temp Dewpoint Dewpoint Depression Visibility Wind Speed Wind Dir Waves Ship Positions

Mikasa

Last reported at 2018-Jan-21 20:00 UTC. Time now 2018-Jan-21 20:25 UTC.
Position N 34°40' E 135°23'.

Length 64 m; draft 4 m.

Type: Tanker. MMSI: 431005138.

Date/timePositionNaut miles runAvg speedWind from/ knotsBaromVisibWave heightAir tempDewpointWater temp
2018-Jan-21 20:00N 34°40' E 135°23'0 0.0
2018-Jan-21 19:31N 34°40' E 135°23'0 0.0
2018-Jan-21 19:00N 34°40' E 135°23'0 0.0
2018-Jan-21 18:31N 34°40' E 135°23'0 0.0
2018-Jan-21 18:01N 34°40' E 135°23'0 0.0
2018-Jan-21 17:31N 34°40' E 135°23'0 0.0
2018-Jan-21 17:00N 34°40' E 135°23'0 0.0
2018-Jan-21 16:30N 34°40' E 135°23'0 0.0
2018-Jan-21 16:00N 34°40' E 135°23'0 0.0
2018-Jan-21 15:31N 34°40' E 135°23'0 0.0
2018-Jan-21 15:01N 34°40' E 135°23'0 0.0
2018-Jan-21 14:31N 34°40' E 135°23'0 0.0
2018-Jan-21 14:00N 34°40' E 135°23'0 0.0
2018-Jan-21 13:30N 34°40' E 135°23'0 0.0
2018-Jan-21 13:00N 34°40' E 135°23'0 0.0
2018-Jan-21 12:30N 34°40' E 135°23'0 0.0
2018-Jan-21 12:01N 34°40' E 135°23'0 0.0
2018-Jan-21 11:30N 34°40' E 135°23'0 0.0
2018-Jan-21 11:01N 34°40' E 135°23'0 0.0
2018-Jan-21 10:30N 34°40' E 135°23'0 0.0
2018-Jan-21 10:00N 34°40' E 135°23'0 0.0
2018-Jan-21 09:30N 34°40' E 135°23'0 0.0
2018-Jan-21 09:00N 34°40' E 135°23'4 7.6
2018-Jan-21 08:30N 34°37' E 135°20'611.7
2018-Jan-21 08:01N 34°32' E 135°16'611.6
2018-Jan-21 07:30N 34°28' E 135°12'611.4
2018-Jan-21 07:00N 34°23' E 135°08'511.0
2018-Jan-21 06:31N 34°18' E 135°04'5 9.6
2018-Jan-21 06:01N 34°14' E 135°04'611.6
2018-Jan-21 05:31N 34°08' E 135°07'1 3.0
2018-Jan-21 05:00N 34°07' E 135°07'0 0.0
2018-Jan-21 04:30N 34°07' E 135°07'0 0.0
2018-Jan-21 04:01N 34°07' E 135°07'0 0.0
2018-Jan-21 03:31N 34°07' E 135°07'0 0.0
2018-Jan-21 03:01N 34°07' E 135°07'1 1.1
2018-Jan-21 02:31N 34°07' E 135°08'0 0.2
2018-Jan-21 02:01N 34°08' E 135°08'0 0.0
2018-Jan-21 01:31N 34°08' E 135°08'0 0.0
2018-Jan-21 01:00N 34°08' E 135°08'0 0.1
2018-Jan-21 00:30N 34°08' E 135°08'0 0.1
2018-Jan-21 00:01N 34°08' E 135°08'0 0.0
2018-Jan-20 23:30N 34°08' E 135°08'0 0.0
2018-Jan-20 23:00N 34°08' E 135°08'0 0.0
2018-Jan-20 22:30N 34°08' E 135°08'0 0.1
2018-Jan-20 22:00N 34°08' E 135°08'0 0.0
2018-Jan-20 21:31N 34°08' E 135°08'0 0.1
2018-Jan-20 21:00N 34°08' E 135°08'611.1
2018-Jan-20 20:30N 34°08' E 135°01'612.5
2018-Jan-20 20:01N 34°08' E 134°53'612.0
2018-Jan-20 19:30N 34°10' E 134°46'613.1
2018-Jan-20 19:00N 34°13' E 134°40'613.0
2018-Jan-20 18:31N 34°17' E 134°34'612.6
2018-Jan-20 18:00N 34°20' E 134°26'612.9
2018-Jan-20 17:30N 34°22' E 134°19'713.4
2018-Jan-20 17:00N 34°25' E 134°12'713.7
2018-Jan-20 16:30N 34°26' E 134°04'70 6.1
2018-Jan-20 05:07N 33°60' E 132°46'212.3
2018-Jan-20 04:59N 33°59' E 132°45'8 1.5
2018-Jan-19 23:54N 33°51' E 132°42'0 0.1
2018-Jan-19 23:30N 33°51' E 132°42'1 1.4
2018-Jan-19 23:00N 33°52' E 132°42'5 9.2
2018-Jan-19 22:30N 33°56' E 132°43'91 4.6
2018-Jan-19 02:58N 34°18' E 134°30'612.9
2018-Jan-19 02:29N 34°16' E 134°37'611.8
2018-Jan-19 02:00N 34°12' E 134°42'612.9
2018-Jan-19 01:30N 34°07' E 134°47'613.1
2018-Jan-19 01:00N 34°02' E 134°52'713.1
2018-Jan-19 00:30N 33°57' E 134°58'713.0
2018-Jan-19 00:00N 33°53' E 135°03'11210.0
2018-Jan-18 12:44N 34°31' E 137°10'312.2
2018-Jan-18 12:31N 34°33' E 137°13'5111.2
2018-Jan-18 07:55N 34°35' E 138°15'810.8
2018-Jan-18 07:09N 34°38' E 138°25'210.6
2018-Jan-18 07:00N 34°38' E 138°27'510.4
2018-Jan-18 06:30N 34°37' E 138°33'610.4
2018-Jan-18 05:54N 34°36' E 138°40'611.4
2018-Jan-18 05:20N 34°36' E 138°48'411.2
2018-Jan-18 04:57N 34°37' E 138°53'811.4
2018-Jan-18 04:17N 34°41' E 139°01'311.5
2018-Jan-18 04:00N 34°44' E 139°03'612.0
2018-Jan-18 03:31N 34°48' E 139°08'812.4
2018-Jan-18 02:51N 34°55' E 139°14'411.6
2018-Jan-18 02:29N 34°57' E 139°18'611.5
2018-Jan-18 01:59N 34°60' E 139°25'511.4
2018-Jan-18 01:30N 35°03' E 139°30'611.7
2018-Jan-18 00:59N 35°06' E 139°36'1212.0
2018-Jan-18 00:00N 35°15' E 139°46'113.8
2018-Jan-17 23:58N 35°15' E 139°46'  
2018-Jan-12 15:01N 34°27' E 134°31'713.0
2018-Jan-12 14:30N 34°25' E 134°24'713.3
2018-Jan-12 13:59N 34°24' E 134°15'7810.4
2018-Jan-12 06:28N 33°60' E 132°46'613.4
2018-Jan-12 06:00N 33°55' E 132°42'3 0.6
2018-Jan-12 01:13N 33°52' E 132°42'311.8
2018-Jan-12 00:59N 33°55' E 132°42'  
Track history (hours):
 
Tides and Currents Weather Stations Pressure Air Temp Water Temp Dewpoint Dewpoint Depression Visibility Wind Speed Wind Dir Waves Ship Positions

Mikasa

Last reported at 2018-Jan-21 20:00 UTC. Time now 2018-Jan-21 20:25 UTC.
Position N 34°40' E 135°23'.

Length 64 m; draft 4 m.

Type: Tanker. MMSI: 431005138.

Date/timePositionNaut miles runAvg speedWind from/ knotsBaromVisibWave heightAir tempDewpointWater temp
2018-Jan-21 20:00N 34°40' E 135°23'0 0.0
2018-Jan-21 19:31N 34°40' E 135°23'0 0.0
2018-Jan-21 19:00N 34°40' E 135°23'0 0.0
2018-Jan-21 18:31N 34°40' E 135°23'0 0.0
2018-Jan-21 18:01N 34°40' E 135°23'0 0.0
2018-Jan-21 17:31N 34°40' E 135°23'0 0.0
2018-Jan-21 17:00N 34°40' E 135°23'0 0.0
2018-Jan-21 16:30N 34°40' E 135°23'0 0.0
2018-Jan-21 16:00N 34°40' E 135°23'0 0.0
2018-Jan-21 15:31N 34°40' E 135°23'0 0.0
2018-Jan-21 15:01N 34°40' E 135°23'0 0.0
2018-Jan-21 14:31N 34°40' E 135°23'0 0.0
2018-Jan-21 14:00N 34°40' E 135°23'0 0.0
2018-Jan-21 13:30N 34°40' E 135°23'0 0.0
2018-Jan-21 13:00N 34°40' E 135°23'0 0.0
2018-Jan-21 12:30N 34°40' E 135°23'0 0.0
2018-Jan-21 12:01N 34°40' E 135°23'0 0.0
2018-Jan-21 11:30N 34°40' E 135°23'0 0.0
2018-Jan-21 11:01N 34°40' E 135°23'0 0.0
2018-Jan-21 10:30N 34°40' E 135°23'0 0.0
2018-Jan-21 10:00N 34°40' E 135°23'0 0.0
2018-Jan-21 09:30N 34°40' E 135°23'0 0.0
2018-Jan-21 09:00N 34°40' E 135°23'4 7.6
2018-Jan-21 08:30N 34°37' E 135°20'611.7
2018-Jan-21 08:01N 34°32' E 135°16'611.6
2018-Jan-21 07:30N 34°28' E 135°12'611.4
2018-Jan-21 07:00N 34°23' E 135°08'511.0
2018-Jan-21 06:31N 34°18' E 135°04'5 9.6
2018-Jan-21 06:01N 34°14' E 135°04'611.6
2018-Jan-21 05:31N 34°08' E 135°07'1 3.0
2018-Jan-21 05:00N 34°07' E 135°07'0 0.0
2018-Jan-21 04:30N 34°07' E 135°07'0 0.0
2018-Jan-21 04:01N 34°07' E 135°07'0 0.0
2018-Jan-21 03:31N 34°07' E 135°07'0 0.0
2018-Jan-21 03:01N 34°07' E 135°07'1 1.1
2018-Jan-21 02:31N 34°07' E 135°08'0 0.2
2018-Jan-21 02:01N 34°08' E 135°08'0 0.0
2018-Jan-21 01:31N 34°08' E 135°08'0 0.0
2018-Jan-21 01:00N 34°08' E 135°08'0 0.1
2018-Jan-21 00:30N 34°08' E 135°08'0 0.1
2018-Jan-21 00:01N 34°08' E 135°08'0 0.0
2018-Jan-20 23:30N 34°08' E 135°08'0 0.0
2018-Jan-20 23:00N 34°08' E 135°08'0 0.0
2018-Jan-20 22:30N 34°08' E 135°08'0 0.1
2018-Jan-20 22:00N 34°08' E 135°08'0 0.0
2018-Jan-20 21:31N 34°08' E 135°08'0 0.1
2018-Jan-20 21:00N 34°08' E 135°08'611.1
2018-Jan-20 20:30N 34°08' E 135°01'612.5
2018-Jan-20 20:01N 34°08' E 134°53'612.0
2018-Jan-20 19:30N 34°10' E 134°46'613.1
2018-Jan-20 19:00N 34°13' E 134°40'613.0
2018-Jan-20 18:31N 34°17' E 134°34'612.6
2018-Jan-20 18:00N 34°20' E 134°26'612.9
2018-Jan-20 17:30N 34°22' E 134°19'713.4
2018-Jan-20 17:00N 34°25' E 134°12'713.7
2018-Jan-20 16:30N 34°26' E 134°04'70 6.1
2018-Jan-20 05:07N 33°60' E 132°46'212.3
2018-Jan-20 04:59N 33°59' E 132°45'8 1.5
2018-Jan-19 23:54N 33°51' E 132°42'0 0.1
2018-Jan-19 23:30N 33°51' E 132°42'1 1.4
2018-Jan-19 23:00N 33°52' E 132°42'5 9.2
2018-Jan-19 22:30N 33°56' E 132°43'91 4.6
2018-Jan-19 02:58N 34°18' E 134°30'612.9
2018-Jan-19 02:29N 34°16' E 134°37'611.8
2018-Jan-19 02:00N 34°12' E 134°42'612.9
2018-Jan-19 01:30N 34°07' E 134°47'613.1
2018-Jan-19 01:00N 34°02' E 134°52'713.1
2018-Jan-19 00:30N 33°57' E 134°58'713.0
2018-Jan-19 00:00N 33°53' E 135°03'11210.0
2018-Jan-18 12:44N 34°31' E 137°10'312.2
2018-Jan-18 12:31N 34°33' E 137°13'5111.2
2018-Jan-18 07:55N 34°35' E 138°15'810.8
2018-Jan-18 07:09N 34°38' E 138°25'210.6
2018-Jan-18 07:00N 34°38' E 138°27'510.4
2018-Jan-18 06:30N 34°37' E 138°33'610.4
2018-Jan-18 05:54N 34°36' E 138°40'611.4
2018-Jan-18 05:20N 34°36' E 138°48'411.2
2018-Jan-18 04:57N 34°37' E 138°53'811.4
2018-Jan-18 04:17N 34°41' E 139°01'311.5
2018-Jan-18 04:00N 34°44' E 139°03'612.0
2018-Jan-18 03:31N 34°48' E 139°08'812.4
2018-Jan-18 02:51N 34°55' E 139°14'411.6
2018-Jan-18 02:29N 34°57' E 139°18'611.5
2018-Jan-18 01:59N 34°60' E 139°25'511.4
2018-Jan-18 01:30N 35°03' E 139°30'611.7
2018-Jan-18 00:59N 35°06' E 139°36'1212.0
2018-Jan-18 00:00N 35°15' E 139°46'113.8
2018-Jan-17 23:58N 35°15' E 139°46'  
2018-Jan-12 15:01N 34°27' E 134°31'713.0
2018-Jan-12 14:30N 34°25' E 134°24'713.3
2018-Jan-12 13:59N 34°24' E 134°15'7810.4
2018-Jan-12 06:28N 33°60' E 132°46'613.4
2018-Jan-12 06:00N 33°55' E 132°42'3 0.6
2018-Jan-12 01:13N 33°52' E 132°42'311.8
2018-Jan-12 00:59N 33°55' E 132°42'  

Dump ship's entire track history